Terminal Aerodrome Forecast
Issued by NWS Cleveland, OH

Home | Current Version | Previous Version | Graphics & Text | Print | Product List | Glossary On
Versions: 1 2 3 4 5 6 7 8 9 10 11 12 13 14 15 16 17
000
FTUS41 KCLE 160500
TAFMFD
TAF
KMFD 160540Z 1606/1706 11010KT P6SM BKN200
     FM161600 17014G20KT 6SM -SHRA BKN060 OVC100
     FM161900 18012KT 6SM -SHRA OVC025
     FM162200 18010KT P6SM SCT008 OVC014=

USA.gov is the U.S. government's official web portal to all federal, state and local government web resources and services.